createdAt,value
2019-01-02T00:00:27.268Z,98111.38
2019-01-02T00:05:30.636Z,98114.61
2019-01-02T00:10:33.919Z,98107.34
2019-01-02T00:15:37.409Z,98103.70
2019-01-02T00:20:40.686Z,98103.75
2019-01-02T00:25:44.167Z,98105.59
2019-01-02T00:30:47.469Z,98108.05
2019-01-02T00:35:50.840Z,98113.19
2019-01-02T00:40:54.238Z,98121.00
2019-01-02T00:45:57.521Z,98105.66
2019-01-02T00:51:00.919Z,98109.78
2019-01-02T00:56:04.202Z,98118.75
2019-01-02T01:01:07.564Z,98124.86
2019-01-02T01:06:10.839Z,98139.70
2019-01-02T01:11:14.124Z,98154.83
2019-01-02T01:16:17.532Z,98182.42
2019-01-02T01:21:20.777Z,98154.84
2019-01-02T01:26:24.193Z,98159.11
2019-01-02T01:31:27.465Z,98150.05
2019-01-02T01:36:30.834Z,98160.34
2019-01-02T01:41:34.188Z,98171.05
2019-01-02T01:46:37.585Z,98167.14
2019-01-02T01:51:40.874Z,98179.47
2019-01-02T01:56:44.209Z,98181.75
2019-01-02T02:01:47.588Z,98195.06
2019-01-02T02:06:50.854Z,98194.27
2019-01-02T02:11:54.282Z,98197.33
2019-01-02T02:16:57.552Z,98168.52
2019-01-02T02:22:01.023Z,98168.56
2019-01-02T02:27:04.418Z,98165.91
2019-01-02T02:32:07.905Z,98169.71
2019-01-02T02:37:11.214Z,98160.66
2019-01-02T02:42:14.468Z,98171.36
2019-01-02T02:47:18.037Z,98171.05
2019-01-02T02:52:21.430Z,98163.50
2019-01-02T02:57:24.720Z,98153.23
2019-01-02T03:02:28.051Z,98141.62
2019-01-02T03:07:31.349Z,98139.92
2019-01-02T03:12:34.800Z,98145.97
2019-01-02T03:17:38.078Z,98143.39
2019-01-02T03:22:41.404Z,98138.69
2019-01-02T03:27:44.850Z,98137.84
2019-01-02T03:32:48.165Z,98137.44
2019-01-02T03:37:51.471Z,98137.48
2019-01-02T03:42:55.037Z,98121.27
2019-01-02T03:47:58.316Z,98119.95
2019-01-02T03:53:01.585Z,98127.19
2019-01-02T03:58:04.863Z,98127.66
2019-01-02T04:03:08.487Z,98131.84
2019-01-02T04:08:13.303Z,98140.45
2019-01-02T04:13:16.647Z,98149.50
2019-01-02T04:18:19.900Z,98142.67
2019-01-02T04:23:23.247Z,98143.19
2019-01-02T04:28:26.656Z,98142.34
2019-01-02T04:33:29.960Z,98150.87
2019-01-02T04:38:33.317Z,98154.77
2019-01-02T04:43:36.831Z,98157.37
2019-01-02T04:48:40.106Z,98153.11
2019-01-02T04:53:43.389Z,98162.48
2019-01-02T04:58:46.865Z,98170.20
2019-01-02T05:03:50.187Z,98177.03
2019-01-02T05:08:53.482Z,98189.05
2019-01-02T05:13:56.839Z,98190.75
2019-01-02T05:19:04.068Z,98194.64
2019-01-02T05:24:07.332Z,98190.38
2019-01-02T05:29:10.691Z,98204.08
2019-01-02T05:34:13.971Z,98211.39
2019-01-02T05:39:17.392Z,98213.52
2019-01-02T05:44:20.652Z,98217.80
2019-01-02T05:49:23.959Z,98220.34
2019-01-02T05:54:27.235Z,98228.03
2019-01-02T05:59:30.859Z,98225.42
2019-01-02T06:04:34.465Z,98221.09
2019-01-02T06:09:37.756Z,98229.66
2019-01-02T06:14:41.055Z,98240.77
2019-01-02T06:19:44.309Z,98242.90
2019-01-02T06:24:47.561Z,98251.50
2019-01-02T06:29:50.841Z,98266.91
2019-01-02T06:34:54.240Z,98270.78
2019-01-02T06:39:57.502Z,98280.23
2019-01-02T06:45:00.756Z,98284.52
2019-01-02T06:50:04.976Z,98292.28
2019-01-02T06:55:08.271Z,98305.55
2019-01-02T07:00:15.069Z,98315.83
2019-01-02T07:05:18.380Z,98315.36
2019-01-02T07:10:21.787Z,98328.28
2019-01-02T07:15:25.052Z,98314.13
2019-01-02T07:20:28.417Z,98323.55
2019-01-02T07:25:31.676Z,98335.55
2019-01-02T07:30:35.012Z,98341.55
2019-01-02T07:36:22.208Z,98353.59
2019-01-02T07:41:42.577Z,98359.61
2019-01-02T07:49:04.957Z,98364.33
2019-01-02T07:54:30.103Z,98374.65
2019-01-02T07:59:44.852Z,98381.47
2019-01-02T08:05:00.975Z,98394.71
2019-01-02T08:12:19.723Z,98405.38
2019-01-02T08:17:37.716Z,98410.20
2019-01-02T08:24:54.024Z,98408.51
2019-01-02T08:30:23.050Z,98409.34
2019-01-02T08:37:40.404Z,98409.73
2019-01-02T08:43:05.175Z,98423.37
2019-01-02T08:48:23.888Z,98430.20
2019-01-02T08:53:39.221Z,98435.73
2019-01-02T08:59:02.059Z,98429.67
2019-01-02T09:04:33.872Z,98440.39
2019-01-02T09:10:17.868Z,98445.86
2019-01-02T09:19:34.258Z,98451.34
2019-01-02T09:24:46.168Z,98460.22
2019-01-02T09:32:02.060Z,98442.25
2019-01-02T09:37:20.196Z,98429.88
2019-01-02T09:42:36.505Z,98428.58
2019-01-02T09:48:53.054Z,98421.53
2019-01-02T09:54:15.417Z,98381.76
2019-01-02T10:00:34.638Z,98387.31
2019-01-02T10:05:49.822Z,98381.14
2019-01-02T10:11:08.938Z,98377.78
2019-01-02T10:16:33.927Z,98392.61
2019-01-02T10:21:51.103Z,98423.71
2019-01-02T10:27:19.689Z,98458.95
2019-01-02T10:32:37.208Z,98440.75
2019-01-02T10:39:53.529Z,98437.30
2019-01-02T10:45:21.944Z,98418.81
2019-01-02T10:52:40.949Z,98425.69
2019-01-02T10:58:23.893Z,98426.14
2019-01-02T11:03:44.153Z,98429.19
2019-01-02T11:08:58.992Z,98415.48
2019-01-02T11:14:14.107Z,98413.24
2019-01-02T11:19:28.277Z,98400.52
2019-01-02T11:24:45.418Z,98406.63
2019-01-02T11:30:02.200Z,98407.03
2019-01-02T11:35:24.175Z,98403.28
2019-01-02T11:40:41.730Z,98393.56
2019-01-02T11:45:45.271Z,98393.20
2019-01-02T11:50:48.595Z,98382.95
2019-01-02T11:55:51.868Z,98401.75
2019-01-02T12:00:55.370Z,98394.16
2019-01-02T12:05:58.840Z,98405.66
2019-01-02T12:11:02.293Z,98410.53
2019-01-02T12:16:05.611Z,98421.19
2019-01-02T12:21:08.888Z,98424.72
2019-01-02T12:26:12.279Z,98422.97
2019-01-02T12:31:15.635Z,98406.85
2019-01-02T12:36:19.157Z,98403.98
2019-01-02T12:41:22.742Z,98402.42
2019-01-02T12:46:26.243Z,98419.14
2019-01-02T12:51:29.736Z,98421.48
2019-01-02T12:56:33.324Z,98449.05
2019-01-02T13:01:52.068Z,98471.96
2019-01-02T13:07:21.992Z,98480.55
2019-01-02T13:12:40.330Z,98465.95
2019-01-02T13:19:05.026Z,98471.95
2019-01-02T13:24:23.615Z,98490.84
2019-01-02T13:29:41.969Z,98555.27
2019-01-02T13:35:59.701Z,98553.36
2019-01-02T13:41:47.216Z,98543.61
2019-01-02T13:47:09.245Z,98542.81
2019-01-02T13:52:12.711Z,98544.53
2019-01-02T13:57:16.297Z,98535.53
2019-01-02T14:02:19.861Z,98541.98
2019-01-02T14:07:23.392Z,98542.83
2019-01-02T14:12:26.864Z,98542.83
2019-01-02T14:17:30.377Z,98544.12
2019-01-02T14:22:33.870Z,98550.53
2019-01-02T14:27:37.392Z,98554.41
2019-01-02T14:32:40.821Z,98564.69
2019-01-02T14:37:44.444Z,98565.12
2019-01-02T14:42:47.808Z,98568.53
2019-01-02T14:47:51.356Z,98581.79
2019-01-02T14:52:54.848Z,98584.37
2019-01-02T14:57:58.393Z,98596.34
2019-01-02T15:03:01.924Z,98605.77
2019-01-02T15:08:05.436Z,98622.47
2019-01-02T15:13:08.960Z,98624.59
2019-01-02T15:18:12.500Z,98627.11
2019-01-02T15:23:15.987Z,98632.24
2019-01-02T15:28:19.520Z,98646.34
2019-01-02T15:33:23.005Z,98664.32
2019-01-02T15:38:26.412Z,98678.03
2019-01-02T15:43:29.809Z,98688.73
2019-01-02T15:48:33.365Z,98695.66
2019-01-02T15:53:36.771Z,98711.13
2019-01-02T15:58:41.377Z,98725.28
2019-01-02T16:03:45.172Z,98735.13
2019-01-02T16:08:48.643Z,98743.63
2019-01-02T16:13:52.427Z,98756.02
2019-01-02T16:18:56.657Z,98761.17
2019-01-02T16:24:00.180Z,98774.39
2019-01-02T16:29:03.785Z,98782.08
2019-01-02T16:34:07.378Z,98781.17
2019-01-02T16:39:10.900Z,98778.55
2019-01-02T16:44:14.404Z,98791.04
2019-01-02T16:49:17.800Z,98805.86
2019-01-02T16:54:21.423Z,98808.81
2019-01-02T16:59:24.842Z,98811.83
2019-01-02T17:04:29.385Z,98824.08
2019-01-02T17:09:32.884Z,98825.30
2019-01-02T17:14:36.476Z,98830.05
2019-01-02T17:19:42.068Z,98833.00
2019-01-02T17:24:45.667Z,98826.53
2019-01-02T17:29:49.361Z,98826.92
2019-01-02T17:34:52.961Z,98821.40
2019-01-02T17:39:57.495Z,98829.50
2019-01-02T17:45:01.059Z,98831.25
2019-01-02T17:50:05.024Z,98834.22
2019-01-02T17:55:08.562Z,98849.17
2019-01-02T18:00:13.025Z,98859.05
2019-01-02T18:05:16.733Z,98874.50
2019-01-02T18:10:20.176Z,98872.16
2019-01-02T18:15:23.720Z,98880.90
2019-01-02T18:20:28.075Z,98885.80
2019-01-02T18:25:31.460Z,98896.02
2019-01-02T18:30:34.920Z,98906.30
2019-01-02T18:35:38.815Z,98901.95
2019-01-02T18:40:42.374Z,98893.75
2019-01-02T18:45:45.967Z,98901.72
2019-01-02T18:50:50.439Z,98908.85
2019-01-02T18:55:54.004Z,98915.17
2019-01-02T19:00:57.492Z,98907.80
2019-01-02T19:06:02.480Z,98916.36
2019-01-02T19:11:06.085Z,98922.30
2019-01-02T19:16:09.499Z,98922.31
2019-01-02T19:21:13.699Z,98926.95
2019-01-02T19:26:20.258Z,98937.59
2019-01-02T19:31:24.044Z,98949.08
2019-01-02T19:36:27.616Z,98955.03
2019-01-02T19:41:31.137Z,98962.84
2019-01-02T19:46:34.598Z,98965.47
2019-01-02T19:51:38.116Z,98968.55
2019-01-02T19:56:41.839Z,98972.61
2019-01-02T20:01:46.716Z,98979.86
2019-01-02T20:06:50.343Z,98992.30
2019-01-02T20:11:54.092Z,98990.19
2019-01-02T20:16:57.521Z,98990.19
2019-01-02T20:22:01.697Z,98984.25
2019-01-02T20:27:05.717Z,98992.43
2019-01-02T20:32:09.252Z,98990.61
2019-01-02T20:37:12.704Z,98989.73
2019-01-02T20:42:16.314Z,98990.13
2019-01-02T20:47:19.748Z,98986.34
2019-01-02T20:52:23.292Z,98980.27
2019-01-02T20:57:26.782Z,98984.09
2019-01-02T21:02:30.152Z,98974.19
2019-01-02T21:07:33.732Z,98974.20
2019-01-02T21:12:37.254Z,98968.81
2019-01-02T21:17:40.801Z,98968.23
2019-01-02T21:22:44.201Z,98965.58
2019-01-02T21:27:47.769Z,98966.72
2019-01-02T21:32:51.153Z,98971.17
2019-01-02T21:37:54.719Z,98966.24
2019-01-02T21:42:58.122Z,98970.31
2019-01-02T21:48:01.569Z,98974.59
2019-01-02T21:53:05.247Z,98976.36
2019-01-02T21:58:08.637Z,98973.23
2019-01-02T22:03:13.565Z,98975.31
2019-01-02T22:08:17.279Z,98969.61
2019-01-02T22:13:20.933Z,98976.02
2019-01-02T22:18:24.645Z,98986.26
2019-01-02T22:23:28.319Z,98972.97
2019-01-02T22:28:32.241Z,98977.95
2019-01-02T22:33:36.384Z,98987.58
2019-01-02T22:38:40.587Z,98994.78
2019-01-02T22:43:47.292Z,98996.13
2019-01-02T22:48:51.549Z,99003.77
2019-01-02T22:53:54.808Z,99011.03
2019-01-02T22:58:58.122Z,99017.42
2019-01-02T23:04:08.387Z,99023.04
2019-01-02T23:09:18.152Z,99022.67
2019-01-02T23:14:27.176Z,99026.49
2019-01-02T23:21:37.595Z,99030.41
2019-01-02T23:26:47.905Z,99038.50
2019-01-02T23:31:55.510Z,99042.75
2019-01-02T23:39:05.029Z,99050.84
2019-01-02T23:44:29.412Z,99058.11
2019-01-02T23:51:42.376Z,99057.35
2019-01-02T23:56:50.880Z,99047.87
